createdAt,value
2022-09-02T00:00:43.961Z,6.53
2022-09-02T00:03:12.477Z,7.80
2022-09-02T00:05:41.851Z,5.55
2022-09-02T00:08:11.511Z,5.18
2022-09-02T00:10:41.990Z,5.55
2022-09-02T00:13:14.807Z,4.57
2022-09-02T00:15:43.902Z,6.38
2022-09-02T00:18:15.470Z,6.10
2022-09-02T00:20:48.382Z,7.50
2022-09-02T00:23:17.794Z,4.22
2022-09-02T00:25:47.114Z,7.97
2022-09-02T00:28:17.948Z,6.03
2022-09-02T00:30:49.265Z,6.10
2022-09-02T00:33:18.280Z,5.90
2022-09-02T00:35:46.593Z,6.22
2022-09-02T00:38:14.957Z,4.85
2022-09-02T00:40:48.963Z,5.40
2022-09-02T00:43:27.218Z,5.40
2022-09-02T00:45:55.903Z,6.30
2022-09-02T00:48:24.310Z,6.18
2022-09-02T00:50:52.916Z,5.72
2022-09-02T00:53:21.468Z,6.38
2022-09-02T00:55:52.306Z,6.82
2022-09-02T00:58:24.948Z,4.68
2022-09-02T01:01:00.427Z,8.35
2022-09-02T01:03:31.971Z,6.95
2022-09-02T01:06:02.142Z,6.15
2022-09-02T01:08:34.546Z,6.45
2022-09-02T01:11:06.321Z,5.80
2022-09-02T01:13:40.331Z,7.20
2022-09-02T01:16:16.674Z,5.40
2022-09-02T01:18:50.201Z,6.15
2022-09-02T01:21:19.101Z,6.75
2022-09-02T01:23:50.200Z,6.82
2022-09-02T01:26:19.919Z,10.05
2022-09-02T01:28:48.383Z,7.85
2022-09-02T01:31:16.980Z,7.28
2022-09-02T01:33:45.490Z,9.13
2022-09-02T01:36:13.828Z,10.52
2022-09-02T01:38:42.226Z,10.25
2022-09-02T01:41:11.991Z,12.85
2022-09-02T01:43:40.475Z,7.57
2022-09-02T01:46:09.575Z,8.27
2022-09-02T01:48:38.050Z,9.20
2022-09-02T01:51:06.393Z,9.18
2022-09-02T01:53:35.327Z,10.07
2022-09-02T01:56:04.236Z,10.85
2022-09-02T01:58:36.568Z,9.48
2022-09-02T02:01:05.269Z,8.30
2022-09-02T02:03:34.005Z,10.35
2022-09-02T02:06:03.296Z,9.85
2022-09-02T02:08:31.930Z,10.10
2022-09-02T02:11:04.212Z,8.65
2022-09-02T02:13:33.100Z,8.32
2022-09-02T02:16:02.961Z,8.55
2022-09-02T02:18:33.773Z,8.02
2022-09-02T02:21:02.132Z,6.97
2022-09-02T02:23:30.557Z,11.02
2022-09-02T02:25:58.842Z,10.25
2022-09-02T02:28:27.531Z,9.57
2022-09-02T02:30:56.021Z,9.38
2022-09-02T02:33:26.156Z,9.73
2022-09-02T02:36:04.563Z,7.72
2022-09-02T02:38:33.898Z,9.10
2022-09-02T02:41:05.815Z,11.52
2022-09-02T02:43:34.699Z,10.18
2022-09-02T02:46:03.046Z,11.77
2022-09-02T02:48:33.865Z,10.80
2022-09-02T02:51:02.550Z,9.07
2022-09-02T02:53:31.700Z,11.35
2022-09-02T02:56:00.449Z,7.43
2022-09-02T02:58:29.397Z,8.88
2022-09-02T03:00:58.191Z,11.27
2022-09-02T03:03:26.767Z,11.50
2022-09-02T03:05:58.879Z,8.98
2022-09-02T03:08:29.466Z,9.57
2022-09-02T03:10:58.635Z,10.50
2022-09-02T03:13:32.023Z,11.45
2022-09-02T03:16:02.848Z,10.32
2022-09-02T03:18:31.294Z,9.60
2022-09-02T03:21:02.200Z,9.55
2022-09-02T03:23:30.863Z,8.68
2022-09-02T03:26:00.809Z,12.32
2022-09-02T03:28:34.398Z,11.13
2022-09-02T03:31:04.710Z,6.40
2022-09-02T03:33:33.343Z,7.45
2022-09-02T03:36:03.108Z,12.05
2022-09-02T03:38:32.157Z,10.20
2022-09-02T03:41:00.477Z,7.50
2022-09-02T03:43:29.043Z,7.95
2022-09-02T03:45:59.102Z,11.95
2022-09-02T03:48:29.545Z,7.55
2022-09-02T03:50:58.328Z,8.75
2022-09-02T03:53:28.859Z,6.78
2022-09-02T03:56:00.535Z,10.15
2022-09-02T03:58:30.165Z,6.90
2022-09-02T04:01:00.171Z,8.02
2022-09-02T04:03:28.853Z,8.57
2022-09-02T04:05:57.519Z,8.88
2022-09-02T04:08:30.356Z,10.98
2022-09-02T04:11:06.823Z,11.80
2022-09-02T04:13:35.502Z,7.25
2022-09-02T04:16:10.571Z,8.65
2022-09-02T04:18:39.552Z,9.23
2022-09-02T04:21:08.779Z,7.75
2022-09-02T04:23:40.503Z,7.57
2022-09-02T04:26:11.627Z,9.27
2022-09-02T04:28:40.489Z,9.02
2022-09-02T04:31:10.505Z,7.45
2022-09-02T04:33:40.631Z,7.80
2022-09-02T04:36:15.301Z,7.85
2022-09-02T04:38:47.828Z,7.80
2022-09-02T04:41:21.139Z,8.60
2022-09-02T04:43:49.544Z,7.25
2022-09-02T04:46:18.271Z,7.90
2022-09-02T04:48:57.954Z,7.45
2022-09-02T04:51:28.200Z,8.60
2022-09-02T04:54:02.247Z,8.98
2022-09-02T04:56:33.278Z,9.90
2022-09-02T04:59:03.726Z,7.55
2022-09-02T05:01:34.701Z,9.52
2022-09-02T05:04:09.758Z,9.30
2022-09-02T05:06:44.562Z,9.27
2022-09-02T05:09:21.062Z,6.15
2022-09-02T05:12:09.025Z,9.02
2022-09-02T05:14:51.660Z,11.05
2022-09-02T05:17:22.029Z,8.02
2022-09-02T05:19:50.737Z,8.45
2022-09-02T05:22:19.797Z,7.72
2022-09-02T05:24:50.028Z,10.75
2022-09-02T05:27:18.580Z,9.88
2022-09-02T05:29:48.591Z,5.05
2022-09-02T05:32:20.402Z,7.53
2022-09-02T05:34:50.877Z,6.93
2022-09-02T05:37:19.646Z,6.65
2022-09-02T05:39:50.478Z,7.03
2022-09-02T05:42:20.733Z,6.53
2022-09-02T05:44:53.106Z,7.80
2022-09-02T05:47:25.565Z,6.25
2022-09-02T05:49:54.878Z,8.50
2022-09-02T05:52:24.949Z,8.30
2022-09-02T05:54:57.053Z,6.65
2022-09-02T05:57:25.802Z,6.82
2022-09-02T06:00:05.637Z,8.35
2022-09-02T06:02:43.411Z,5.82
2022-09-02T06:05:21.558Z,5.65
2022-09-02T06:07:57.362Z,6.30
2022-09-02T06:10:28.102Z,7.13
2022-09-02T06:12:56.732Z,7.40
2022-09-02T06:15:31.367Z,6.78
2022-09-02T06:18:02.454Z,7.40
2022-09-02T06:20:33.171Z,8.05
2022-09-02T06:23:04.172Z,5.35
2022-09-02T06:25:37.740Z,7.88
2022-09-02T06:28:08.021Z,6.65
2022-09-02T06:30:41.513Z,6.57
2022-09-02T06:33:10.501Z,6.05
2022-09-02T06:35:40.924Z,10.35
2022-09-02T06:38:12.497Z,6.95
2022-09-02T06:40:50.161Z,6.90
2022-09-02T06:43:22.661Z,5.00
2022-09-02T06:46:17.932Z,8.93
2022-09-02T06:48:50.098Z,6.85
2022-09-02T06:51:22.367Z,8.05
2022-09-02T06:53:52.270Z,5.50
2022-09-02T06:56:23.992Z,6.90
2022-09-02T06:58:52.765Z,7.05
2022-09-02T07:01:23.753Z,6.35
2022-09-02T07:04:10.437Z,7.03
2022-09-02T07:06:42.702Z,7.53
2022-09-02T07:09:13.625Z,6.18
2022-09-02T07:11:47.935Z,7.88
2022-09-02T07:14:16.781Z,6.55
2022-09-02T07:16:50.809Z,7.25
2022-09-02T07:19:20.883Z,4.88
2022-09-02T07:21:50.618Z,7.28
2022-09-02T07:24:21.447Z,5.78
2022-09-02T07:26:55.486Z,8.05
2022-09-02T07:29:24.716Z,9.55
2022-09-02T07:31:53.251Z,7.38
2022-09-02T07:34:22.776Z,6.03
2022-09-02T07:36:52.642Z,6.25
2022-09-02T07:39:22.937Z,5.78
2022-09-02T07:41:53.830Z,8.27
2022-09-02T07:44:24.192Z,5.55
2022-09-02T07:46:54.912Z,5.97
2022-09-02T07:49:24.702Z,5.22
2022-09-02T07:51:53.927Z,5.63
2022-09-02T07:54:26.978Z,5.25
2022-09-02T07:56:58.106Z,4.35
2022-09-02T07:59:26.898Z,6.05
2022-09-02T08:01:58.094Z,6.40
2022-09-02T08:04:27.469Z,5.15
2022-09-02T08:06:57.219Z,6.28
2022-09-02T08:09:25.488Z,7.55
2022-09-02T08:11:54.487Z,7.10
2022-09-02T08:14:28.798Z,5.63
2022-09-02T08:16:59.103Z,4.75
2022-09-02T08:19:27.544Z,9.10
2022-09-02T08:21:56.680Z,6.53
2022-09-02T08:24:24.940Z,6.13
2022-09-02T08:26:53.281Z,6.65
2022-09-02T08:29:23.577Z,9.50
2022-09-02T08:31:54.046Z,7.97
2022-09-02T08:34:22.886Z,4.63
2022-09-02T08:36:56.697Z,5.28
2022-09-02T08:39:25.968Z,5.00
2022-09-02T08:42:03.955Z,5.82
2022-09-02T08:44:37.615Z,4.50
2022-09-02T08:47:08.904Z,5.90
2022-09-02T08:49:43.620Z,4.63
2022-09-02T08:52:17.843Z,4.32
2022-09-02T08:54:51.905Z,5.32
2022-09-02T08:57:20.441Z,4.22
2022-09-02T08:59:53.075Z,5.93
2022-09-02T09:02:28.529Z,5.50
2022-09-02T09:05:13.784Z,5.82
2022-09-02T09:07:55.314Z,7.07
2022-09-02T09:10:30.879Z,5.03
2022-09-02T09:13:17.940Z,5.80
2022-09-02T09:15:54.014Z,6.22
2022-09-02T09:18:32.657Z,4.88
2022-09-02T09:21:00.926Z,4.15
2022-09-02T09:23:34.161Z,4.70
2022-09-02T09:26:08.562Z,4.43
2022-09-02T09:28:42.456Z,7.20
2022-09-02T09:31:18.260Z,5.70
2022-09-02T09:34:00.282Z,3.63
2022-09-02T09:36:51.332Z,6.60
2022-09-02T09:39:22.046Z,4.75
2022-09-02T09:41:51.662Z,5.15
2022-09-02T09:44:40.915Z,6.50
2022-09-02T09:47:18.066Z,4.05
2022-09-02T09:49:48.434Z,3.17
2022-09-02T09:52:27.513Z,4.50
2022-09-02T09:55:24.313Z,4.50
2022-09-02T09:57:54.918Z,5.20
2022-09-02T10:00:32.050Z,5.30
2022-09-02T10:03:04.440Z,3.95
2022-09-02T10:05:36.463Z,5.57
2022-09-02T10:08:15.002Z,7.20
2022-09-02T10:10:58.008Z,3.42
2022-09-02T10:13:29.992Z,5.70
2022-09-02T10:16:20.376Z,5.22
2022-09-02T10:18:56.394Z,4.65
2022-09-02T10:21:45.249Z,4.28
2022-09-02T10:24:31.322Z,4.70
2022-09-02T10:27:00.836Z,5.32
2022-09-02T10:29:54.041Z,5.65
2022-09-02T10:32:59.910Z,4.85
2022-09-02T10:35:40.133Z,3.58
2022-09-02T10:38:20.936Z,4.53
2022-09-02T10:40:54.027Z,4.28
2022-09-02T10:43:32.743Z,4.88
2022-09-02T10:46:02.241Z,5.15
2022-09-02T10:48:41.191Z,3.45
2022-09-02T10:51:20.498Z,3.60
2022-09-02T10:54:10.914Z,3.55
2022-09-02T10:56:44.929Z,3.28
2022-09-02T10:59:19.557Z,5.07
2022-09-02T11:01:53.852Z,3.13
2022-09-02T11:04:28.008Z,4.53
2022-09-02T11:07:03.066Z,3.53
2022-09-02T11:09:38.097Z,4.15
2022-09-02T11:12:12.265Z,4.00
2022-09-02T11:14:54.298Z,3.80
2022-09-02T11:17:29.358Z,3.15
2022-09-02T11:20:03.046Z,3.35
2022-09-02T11:22:41.659Z,4.88
2022-09-02T11:25:17.272Z,3.03
2022-09-02T11:27:50.159Z,3.30
2022-09-02T11:30:21.441Z,3.50
2022-09-02T11:32:55.535Z,3.20
2022-09-02T11:35:27.447Z,3.00
2022-09-02T11:38:03.470Z,3.25
2022-09-02T11:40:38.941Z,2.67
2022-09-02T11:43:28.799Z,3.45
2022-09-02T11:46:14.726Z,4.15
2022-09-02T11:49:37.388Z,3.38
2022-09-02T11:55:03.226Z,3.40
2022-09-02T11:57:33.973Z,3.38
2022-09-02T12:00:41.240Z,3.45
2022-09-02T12:03:40.854Z,3.92
2022-09-02T12:06:13.822Z,2.95
2022-09-02T12:09:06.794Z,2.08
2022-09-02T12:11:41.791Z,3.03
2022-09-02T12:14:13.681Z,2.83
2022-09-02T12:16:45.641Z,3.30
2022-09-02T12:19:29.183Z,3.08
2022-09-02T12:22:26.484Z,2.65
2022-09-02T12:24:55.734Z,2.80
2022-09-02T12:27:28.626Z,4.47
2022-09-02T12:29:58.908Z,2.88
2022-09-02T12:33:09.782Z,2.47
2022-09-02T12:35:57.607Z,3.03
2022-09-02T12:38:32.274Z,2.90
2022-09-02T12:41:22.950Z,2.97
2022-09-02T12:44:06.311Z,3.58
2022-09-02T12:46:54.506Z,2.50
2022-09-02T12:49:37.415Z,3.20
2022-09-02T12:52:09.819Z,3.80
2022-09-02T12:54:47.785Z,3.22
2022-09-02T12:57:17.670Z,2.90
2022-09-02T12:59:48.668Z,2.80
2022-09-02T13:02:42.442Z,3.38
2022-09-02T13:05:25.284Z,2.58
2022-09-02T13:08:27.039Z,3.95
2022-09-02T13:11:31.876Z,3.90
2022-09-02T13:14:45.225Z,2.95
2022-09-02T13:17:36.497Z,3.97
2022-09-02T13:20:36.415Z,2.22
2022-09-02T13:23:31.197Z,1.90
2022-09-02T13:26:48.424Z,2.15
2022-09-02T13:29:44.118Z,2.45
2022-09-02T13:32:16.827Z,3.55
2022-09-02T13:34:48.621Z,1.38
2022-09-02T13:37:31.451Z,2.20
2022-09-02T13:40:00.847Z,2.10
2022-09-02T13:42:33.004Z,2.38
2022-09-02T13:45:12.759Z,2.03
2022-09-02T13:47:44.218Z,2.53
2022-09-02T13:50:15.923Z,1.80
2022-09-02T13:55:43.685Z,3.00
2022-09-02T13:58:27.056Z,3.15
2022-09-02T14:01:01.721Z,2.38
2022-09-02T14:03:33.122Z,2.00
2022-09-02T14:06:03.766Z,3.50
2022-09-02T14:08:32.705Z,2.60
2022-09-02T14:11:06.828Z,2.17
2022-09-02T14:13:36.838Z,2.15
2022-09-02T14:16:28.361Z,3.25
2022-09-02T14:19:07.093Z,2.17
2022-09-02T14:21:37.870Z,2.67
2022-09-02T14:24:06.714Z,1.73
2022-09-02T14:26:37.768Z,1.83
2022-09-02T14:29:07.968Z,1.92
2022-09-02T14:31:38.010Z,2.80
2022-09-02T14:34:35.984Z,2.58
2022-09-02T14:37:20.157Z,2.58
2022-09-02T14:40:11.733Z,3.53
2022-09-02T14:42:48.723Z,4.95
2022-09-02T14:45:27.228Z,1.95
2022-09-02T14:47:55.895Z,2.60
2022-09-02T14:50:28.702Z,1.55
2022-09-02T14:53:04.785Z,1.83
2022-09-02T14:55:47.441Z,1.77
2022-09-02T14:58:16.667Z,2.70
2022-09-02T15:00:47.635Z,2.33
2022-09-02T15:03:17.366Z,3.00
2022-09-02T15:05:45.968Z,2.00
2022-09-02T15:08:17.149Z,4.22
2022-09-02T15:10:46.583Z,3.70
2022-09-02T15:13:23.165Z,2.15
2022-09-02T15:15:53.043Z,1.88
2022-09-02T15:18:21.499Z,2.78
2022-09-02T15:20:50.061Z,4.13
2022-09-02T15:23:20.064Z,2.28
2022-09-02T15:25:48.738Z,2.67
2022-09-02T15:28:17.044Z,2.22
2022-09-02T15:30:45.448Z,2.03
2022-09-02T15:33:17.380Z,2.65
2022-09-02T15:35:46.877Z,2.90
2022-09-02T15:38:15.218Z,2.50
2022-09-02T15:40:45.274Z,1.98
2022-09-02T15:43:13.768Z,1.90
2022-09-02T15:45:47.188Z,2.10
2022-09-02T15:48:15.935Z,2.65
2022-09-02T15:50:46.419Z,2.70
2022-09-02T15:53:16.174Z,2.65
2022-09-02T15:55:45.894Z,3.22
2022-09-02T15:58:14.407Z,2.50
2022-09-02T16:00:43.906Z,2.03
2022-09-02T16:03:12.453Z,1.70
2022-09-02T16:05:43.193Z,2.05
2022-09-02T16:08:11.579Z,2.30
2022-09-02T16:10:40.431Z,3.25
2022-09-02T16:13:10.065Z,2.40
2022-09-02T16:15:38.353Z,1.90
2022-09-02T16:18:06.764Z,3.50
2022-09-02T16:20:34.991Z,1.67
2022-09-02T16:23:03.557Z,3.13
2022-09-02T16:25:31.873Z,2.28
2022-09-02T16:28:01.562Z,2.83
2022-09-02T16:30:31.651Z,2.38
2022-09-02T16:33:00.039Z,3.17
2022-09-02T16:35:28.264Z,2.88
2022-09-02T16:37:57.782Z,2.92
2022-09-02T16:40:26.067Z,2.33
2022-09-02T16:42:54.314Z,3.45
2022-09-02T16:45:22.576Z,3.40
2022-09-02T16:47:52.211Z,4.05
2022-09-02T16:50:20.479Z,3.75
2022-09-02T16:52:48.680Z,2.65
2022-09-02T16:55:18.888Z,3.33
2022-09-02T16:57:47.164Z,5.07
2022-09-02T17:00:17.154Z,5.47
2022-09-02T17:02:45.568Z,4.97
2022-09-02T17:05:17.572Z,2.38
2022-09-02T17:07:46.808Z,7.82
2022-09-02T17:10:15.372Z,3.45
2022-09-02T17:12:43.627Z,3.63
2022-09-02T17:15:11.925Z,4.45
2022-09-02T17:17:42.321Z,2.45
2022-09-02T17:20:13.166Z,5.43
2022-09-02T17:22:42.997Z,2.20
2022-09-02T17:25:11.924Z,2.33
2022-09-02T17:27:41.116Z,3.63
2022-09-02T17:30:11.419Z,2.10
2022-09-02T17:32:40.305Z,3.72
2022-09-02T17:35:11.136Z,2.17
2022-09-02T17:37:40.621Z,2.95
2022-09-02T17:40:34.105Z,4.65
2022-09-02T17:43:01.408Z,3.53
2022-09-02T17:45:29.738Z,4.70
2022-09-02T17:48:08.832Z,2.20
2022-09-02T17:50:46.389Z,2.45
2022-09-02T17:53:14.681Z,2.60
2022-09-02T17:55:44.464Z,2.95
2022-09-02T17:58:19.281Z,4.57
2022-09-02T18:00:50.397Z,5.13
2022-09-02T18:03:40.974Z,4.93
2022-09-02T18:06:15.556Z,2.53
2022-09-02T18:08:50.240Z,5.00
2022-09-02T18:11:22.498Z,4.63
2022-09-02T18:14:00.597Z,3.15
2022-09-02T18:16:33.482Z,3.17
2022-09-02T18:19:13.726Z,5.03
2022-09-02T18:22:00.720Z,5.20
2022-09-02T18:24:44.505Z,3.00
2022-09-02T18:27:21.271Z,2.78
2022-09-02T18:30:02.776Z,3.55
2022-09-02T18:32:55.273Z,4.60
2022-09-02T18:35:33.233Z,5.10
2022-09-02T18:38:07.949Z,2.88
2022-09-02T18:40:44.132Z,3.38
2022-09-02T18:43:22.120Z,3.83
2022-09-02T18:45:52.660Z,3.00
2022-09-02T18:48:25.518Z,6.18
2022-09-02T18:50:58.108Z,5.78
2022-09-02T18:53:32.485Z,3.80
2022-09-02T18:56:06.277Z,3.75
2022-09-02T18:58:40.742Z,5.00
2022-09-02T19:01:17.799Z,2.92
2022-09-02T19:03:46.257Z,4.20
2022-09-02T19:06:19.400Z,4.82
2022-09-02T19:08:48.369Z,4.88
2022-09-02T19:11:18.040Z,4.75
2022-09-02T19:13:49.979Z,5.45
2022-09-02T19:16:20.280Z,6.72
2022-09-02T19:18:48.625Z,6.43
2022-09-02T19:21:21.052Z,5.68
2022-09-02T19:23:49.993Z,6.00
2022-09-02T19:26:18.858Z,5.60
2022-09-02T19:28:49.490Z,3.67
2022-09-02T19:31:22.887Z,5.22
2022-09-02T19:33:54.223Z,6.25
2022-09-02T19:36:24.400Z,3.95
2022-09-02T19:38:56.744Z,3.55
2022-09-02T19:41:27.666Z,4.35
2022-09-02T19:43:57.427Z,5.03
2022-09-02T19:47:11.793Z,3.45
2022-09-02T19:49:16.690Z,6.03
2022-09-02T19:51:45.890Z,6.13
2022-09-02T19:54:15.940Z,5.88
2022-09-02T19:56:44.219Z,5.90
2022-09-02T19:59:14.180Z,5.10
2022-09-02T20:01:42.449Z,5.88
2022-09-02T20:04:11.683Z,5.32
2022-09-02T20:06:40.683Z,5.80
2022-09-02T20:09:09.082Z,6.15
2022-09-02T20:11:38.636Z,6.70
2022-09-02T20:14:09.443Z,4.63
2022-09-02T20:16:39.177Z,7.35
2022-09-02T20:19:07.672Z,6.82
2022-09-02T20:21:44.629Z,5.03
2022-09-02T20:24:15.803Z,7.28
2022-09-02T20:26:53.394Z,8.40
2022-09-02T20:29:41.412Z,4.72
2022-09-02T20:32:25.070Z,5.55
2022-09-02T20:35:08.151Z,5.35
2022-09-02T20:37:50.202Z,4.22
2022-09-02T20:40:37.703Z,7.05
2022-09-02T20:43:30.178Z,5.38
2022-09-02T20:46:02.966Z,7.43
2022-09-02T20:48:53.267Z,6.88
2022-09-02T20:51:24.953Z,7.80
2022-09-02T20:54:11.183Z,8.10
2022-09-02T20:56:48.432Z,5.65
2022-09-02T20:59:27.403Z,5.50
2022-09-02T21:01:59.519Z,6.85
2022-09-02T21:04:35.532Z,7.90
2022-09-02T21:07:09.294Z,5.38
2022-09-02T21:09:46.593Z,5.72
2022-09-02T21:12:24.458Z,5.40
2022-09-02T21:15:01.766Z,5.38
2022-09-02T21:17:38.830Z,4.53
2022-09-02T21:20:16.130Z,3.75
2022-09-02T21:22:48.332Z,4.15
2022-09-02T21:25:24.898Z,6.22
2022-09-02T21:27:58.203Z,6.40
2022-09-02T21:30:29.411Z,4.82
2022-09-02T21:33:00.147Z,3.63
2022-09-02T21:35:36.491Z,3.50
2022-09-02T21:38:15.368Z,3.63
2022-09-02T21:41:03.396Z,5.00
2022-09-02T21:43:48.805Z,3.83
2022-09-02T21:46:27.284Z,2.33
2022-09-02T21:49:04.734Z,2.13
2022-09-02T21:51:37.201Z,5.35
2022-09-02T21:54:25.098Z,2.20
2022-09-02T21:57:15.439Z,2.38
2022-09-02T22:00:03.596Z,2.85
2022-09-02T22:02:51.375Z,4.70
2022-09-02T22:05:40.079Z,2.45
2022-09-02T22:08:16.677Z,4.22
2022-09-02T22:10:52.462Z,3.60
2022-09-02T22:13:23.032Z,2.95
2022-09-02T22:15:59.103Z,3.67
2022-09-02T22:18:39.327Z,4.32
2022-09-02T22:21:17.157Z,3.55
2022-09-02T22:23:47.645Z,3.13
2022-09-02T22:26:28.818Z,6.90
2022-09-02T22:29:04.012Z,4.45
2022-09-02T22:31:36.236Z,3.53
2022-09-02T22:34:08.689Z,3.00
2022-09-02T22:36:49.065Z,3.25
2022-09-02T22:39:18.969Z,2.85
2022-09-02T22:41:55.538Z,3.90
2022-09-02T22:44:53.087Z,2.55
2022-09-02T22:47:42.140Z,2.53
2022-09-02T22:50:32.427Z,6.93
2022-09-02T22:53:01.117Z,5.20
2022-09-02T22:55:53.117Z,1.88
2022-09-02T22:58:37.289Z,1.92
2022-09-02T23:01:15.916Z,2.30
2022-09-02T23:03:56.909Z,2.15
2022-09-02T23:06:28.015Z,4.78
2022-09-02T23:08:56.930Z,3.47
2022-09-02T23:11:34.740Z,2.92
2022-09-02T23:14:12.456Z,3.05
2022-09-02T23:17:19.367Z,2.30
2022-09-02T23:20:04.573Z,5.75
2022-09-02T23:22:44.651Z,3.95
2022-09-02T23:25:33.549Z,4.40
2022-09-02T23:28:15.061Z,2.05
2022-09-02T23:31:01.254Z,4.45
2022-09-02T23:33:41.979Z,4.18
2022-09-02T23:36:18.072Z,2.65
2022-09-02T23:39:03.543Z,4.38
2022-09-02T23:41:31.886Z,3.70
2022-09-02T23:44:02.325Z,3.72
2022-09-02T23:46:45.349Z,2.80
2022-09-02T23:49:23.445Z,4.40
2022-09-02T23:51:59.133Z,3.20
2022-09-02T23:54:50.594Z,4.13
2022-09-02T23:57:43.629Z,2.25
